sensor_id;sensor_type;location;lat;lon;timestamp;temperature;humidity
30475;DHT22;17264;53.340;9.888;2022-08-03T00:01:28;21.80;99.90
30475;DHT22;17264;53.340;9.888;2022-08-03T00:03:53;21.80;99.90
30475;DHT22;17264;53.340;9.888;2022-08-03T00:06:19;21.80;99.90
30475;DHT22;17264;53.340;9.888;2022-08-03T00:08:45;21.80;99.90
30475;DHT22;17264;53.340;9.888;2022-08-03T00:11:10;21.70;99.90
30475;DHT22;17264;53.340;9.888;2022-08-03T00:13:36;21.70;99.90
30475;DHT22;17264;53.340;9.888;2022-08-03T00:16:01;21.70;99.90
30475;DHT22;17264;53.340;9.888;2022-08-03T00:18:27;21.70;99.90
30475;DHT22;17264;53.340;9.888;2022-08-03T00:20:52;21.60;99.90
30475;DHT22;17264;53.340;9.888;2022-08-03T00:23:18;21.60;99.90
30475;DHT22;17264;53.340;9.888;2022-08-03T00:25:43;21.50;99.90
30475;DHT22;17264;53.340;9.888;2022-08-03T00:28:09;21.50;99.90
30475;DHT22;17264;53.340;9.888;2022-08-03T00:30:34;21.40;99.90
30475;DHT22;17264;53.340;9.888;2022-08-03T00:33:00;21.40;99.90
30475;DHT22;17264;53.340;9.888;2022-08-03T00:35:26;21.30;99.90
30475;DHT22;17264;53.340;9.888;2022-08-03T00:37:52;21.20;99.90
30475;DHT22;17264;53.340;9.888;2022-08-03T00:40:18;21.20;99.90
30475;DHT22;17264;53.340;9.888;2022-08-03T00:42:57;21.10;99.90
30475;DHT22;17264;53.340;9.888;2022-08-03T00:45:27;21.00;99.90
30475;DHT22;17264;53.340;9.888;2022-08-03T00:47:53;20.90;99.90
30475;DHT22;17264;53.340;9.888;2022-08-03T00:50:19;20.80;99.90
30475;DHT22;17264;53.340;9.888;2022-08-03T00:52:47;20.70;99.90
30475;DHT22;17264;53.340;9.888;2022-08-03T00:55:13;20.60;99.90
30475;DHT22;17264;53.340;9.888;2022-08-03T00:57:38;20.40;99.90
30475;DHT22;17264;53.340;9.888;2022-08-03T01:00:05;20.30;99.90
30475;DHT22;17264;53.340;9.888;2022-08-03T01:02:31;20.30;99.90
30475;DHT22;17264;53.340;9.888;2022-08-03T01:04:57;20.20;99.90
30475;DHT22;17264;53.340;9.888;2022-08-03T01:07:28;20.10;99.90
30475;DHT22;17264;53.340;9.888;2022-08-03T01:10:05;19.90;99.90
30475;DHT22;17264;53.340;9.888;2022-08-03T01:15:10;19.80;99.90
30475;DHT22;17264;53.340;9.888;2022-08-03T01:17:48;19.80;99.90
30475;DHT22;17264;53.340;9.888;2022-08-03T01:20:14;19.70;99.90
30475;DHT22;17264;53.340;9.888;2022-08-03T01:30:47;19.40;99.90
30475;DHT22;17264;53.340;9.888;2022-08-03T01:33:24;19.30;99.90
30475;DHT22;17264;53.340;9.888;2022-08-03T01:35:53;19.20;99.90
30475;DHT22;17264;53.340;9.888;2022-08-03T01:38:21;19.20;99.90
30475;DHT22;17264;53.340;9.888;2022-08-03T01:40:48;19.10;99.90
30475;DHT22;17264;53.340;9.888;2022-08-03T01:43:16;19.10;99.90
30475;DHT22;17264;53.340;9.888;2022-08-03T01:45:43;19.00;99.90
30475;DHT22;17264;53.340;9.888;2022-08-03T01:48:10;19.00;99.90
30475;DHT22;17264;53.340;9.888;2022-08-03T01:50:36;19.00;99.90
30475;DHT22;17264;53.340;9.888;2022-08-03T01:53:02;19.00;99.90
30475;DHT22;17264;53.340;9.888;2022-08-03T01:55:29;19.00;99.90
30475;DHT22;17264;53.340;9.888;2022-08-03T01:57:57;19.00;99.90
30475;DHT22;17264;53.340;9.888;2022-08-03T02:00:24;19.00;99.90
30475;DHT22;17264;53.340;9.888;2022-08-03T02:02:50;19.00;99.90
30475;DHT22;17264;53.340;9.888;2022-08-03T02:05:16;18.90;99.90
30475;DHT22;17264;53.340;9.888;2022-08-03T02:07:43;18.80;99.90
30475;DHT22;17264;53.340;9.888;2022-08-03T02:10:10;18.80;99.90
30475;DHT22;17264;53.340;9.888;2022-08-03T02:12:37;18.80;99.90
30475;DHT22;17264;53.340;9.888;2022-08-03T02:15:04;18.70;99.90
30475;DHT22;17264;53.340;9.888;2022-08-03T02:17:30;18.70;99.90
30475;DHT22;17264;53.340;9.888;2022-08-03T02:19:57;18.70;99.90
30475;DHT22;17264;53.340;9.888;2022-08-03T02:22:23;18.60;99.90
30475;DHT22;17264;53.340;9.888;2022-08-03T02:24:49;18.70;99.90
30475;DHT22;17264;53.340;9.888;2022-08-03T02:27:17;18.60;99.90
30475;DHT22;17264;53.340;9.888;2022-08-03T02:29:45;18.60;99.90
30475;DHT22;17264;53.340;9.888;2022-08-03T02:32:12;18.60;99.90
30475;DHT22;17264;53.340;9.888;2022-08-03T02:34:39;18.60;99.90
30475;DHT22;17264;53.340;9.888;2022-08-03T02:37:05;18.60;99.90
30475;DHT22;17264;53.340;9.888;2022-08-03T02:39:31;18.60;99.90
30475;DHT22;17264;53.340;9.888;2022-08-03T02:41:59;18.60;99.90
30475;DHT22;17264;53.340;9.888;2022-08-03T02:44:29;18.50;99.90
30475;DHT22;17264;53.340;9.888;2022-08-03T02:47:08;18.50;99.90
30475;DHT22;17264;53.340;9.888;2022-08-03T02:49:34;18.40;99.90
30475;DHT22;17264;53.340;9.888;2022-08-03T02:52:00;18.30;99.90
30475;DHT22;17264;53.340;9.888;2022-08-03T02:54:26;18.30;99.90
30475;DHT22;17264;53.340;9.888;2022-08-03T02:56:53;18.30;99.90
30475;DHT22;17264;53.340;9.888;2022-08-03T02:59:20;18.20;99.90
30475;DHT22;17264;53.340;9.888;2022-08-03T03:01:46;18.20;99.90
30475;DHT22;17264;53.340;9.888;2022-08-03T03:04:12;18.10;99.90
30475;DHT22;17264;53.340;9.888;2022-08-03T03:06:39;18.10;99.90
30475;DHT22;17264;53.340;9.888;2022-08-03T03:09:05;18.10;99.90
30475;DHT22;17264;53.340;9.888;2022-08-03T03:11:30;18.10;99.90
30475;DHT22;17264;53.340;9.888;2022-08-03T03:13:56;18.10;99.90
30475;DHT22;17264;53.340;9.888;2022-08-03T03:16:22;18.20;99.90
30475;DHT22;17264;53.340;9.888;2022-08-03T03:18:50;18.20;99.90
30475;DHT22;17264;53.340;9.888;2022-08-03T03:21:16;18.30;99.90
30475;DHT22;17264;53.340;9.888;2022-08-03T03:23:42;18.40;99.90
30475;DHT22;17264;53.340;9.888;2022-08-03T03:26:08;18.50;99.90
30475;DHT22;17264;53.340;9.888;2022-08-03T03:28:34;18.60;99.90
30475;DHT22;17264;53.340;9.888;2022-08-03T03:31:03;18.70;99.90
30475;DHT22;17264;53.340;9.888;2022-08-03T03:33:29;18.60;99.90
30475;DHT22;17264;53.340;9.888;2022-08-03T03:35:54;18.60;99.90
30475;DHT22;17264;53.340;9.888;2022-08-03T03:38:20;18.50;99.90
30475;DHT22;17264;53.340;9.888;2022-08-03T03:40:45;18.40;99.90
30475;DHT22;17264;53.340;9.888;2022-08-03T03:43:11;18.30;99.90
30475;DHT22;17264;53.340;9.888;2022-08-03T03:45:39;18.30;99.90
30475;DHT22;17264;53.340;9.888;2022-08-03T03:48:05;18.30;99.90
30475;DHT22;17264;53.340;9.888;2022-08-03T03:50:32;18.20;99.90
30475;DHT22;17264;53.340;9.888;2022-08-03T03:52:58;18.10;99.90
30475;DHT22;17264;53.340;9.888;2022-08-03T03:55:23;18.10;99.90
30475;DHT22;17264;53.340;9.888;2022-08-03T03:57:49;18.10;99.90
30475;DHT22;17264;53.340;9.888;2022-08-03T04:00:15;18.10;99.90
30475;DHT22;17264;53.340;9.888;2022-08-03T04:02:41;18.20;99.90
30475;DHT22;17264;53.340;9.888;2022-08-03T04:05:07;18.20;99.90
30475;DHT22;17264;53.340;9.888;2022-08-03T04:07:57;18.30;99.90
30475;DHT22;17264;53.340;9.888;2022-08-03T04:10:42;18.40;99.90
30475;DHT22;17264;53.340;9.888;2022-08-03T04:13:24;18.50;99.90
30475;DHT22;17264;53.340;9.888;2022-08-03T04:15:51;18.60;99.90
30475;DHT22;17264;53.340;9.888;2022-08-03T04:18:18;18.60;99.90
30475;DHT22;17264;53.340;9.888;2022-08-03T04:20:44;18.70;99.90
30475;DHT22;17264;53.340;9.888;2022-08-03T04:23:11;18.80;99.90
30475;DHT22;17264;53.340;9.888;2022-08-03T04:25:37;18.90;99.90
30475;DHT22;17264;53.340;9.888;2022-08-03T04:28:04;18.90;99.90
30475;DHT22;17264;53.340;9.888;2022-08-03T04:30:30;18.90;99.90
30475;DHT22;17264;53.340;9.888;2022-08-03T04:32:57;18.90;99.90
30475;DHT22;17264;53.340;9.888;2022-08-03T04:35:23;19.00;99.90
30475;DHT22;17264;53.340;9.888;2022-08-03T04:37:50;19.00;99.90
30475;DHT22;17264;53.340;9.888;2022-08-03T04:40:26;19.10;99.90
30475;DHT22;17264;53.340;9.888;2022-08-03T04:42:54;19.10;99.90
30475;DHT22;17264;53.340;9.888;2022-08-03T04:45:20;19.20;99.90
30475;DHT22;17264;53.340;9.888;2022-08-03T04:47:46;19.20;99.90
30475;DHT22;17264;53.340;9.888;2022-08-03T04:50:13;19.30;99.90
30475;DHT22;17264;53.340;9.888;2022-08-03T04:52:40;19.30;99.90
30475;DHT22;17264;53.340;9.888;2022-08-03T04:55:05;19.40;99.90
30475;DHT22;17264;53.340;9.888;2022-08-03T04:57:31;19.50;99.90
30475;DHT22;17264;53.340;9.888;2022-08-03T04:59:56;19.50;99.90
30475;DHT22;17264;53.340;9.888;2022-08-03T05:02:22;19.60;99.90
30475;DHT22;17264;53.340;9.888;2022-08-03T05:04:48;19.60;99.90
30475;DHT22;17264;53.340;9.888;2022-08-03T05:07:14;19.70;99.90
30475;DHT22;17264;53.340;9.888;2022-08-03T05:09:40;19.70;99.90
30475;DHT22;17264;53.340;9.888;2022-08-03T05:12:06;19.80;99.90
30475;DHT22;17264;53.340;9.888;2022-08-03T05:14:32;19.90;99.90
30475;DHT22;17264;53.340;9.888;2022-08-03T05:16:57;19.90;99.90
30475;DHT22;17264;53.340;9.888;2022-08-03T05:19:23;19.90;99.90
30475;DHT22;17264;53.340;9.888;2022-08-03T05:21:49;20.00;99.90
30475;DHT22;17264;53.340;9.888;2022-08-03T05:24:14;20.10;99.90
30475;DHT22;17264;53.340;9.888;2022-08-03T05:26:40;20.20;99.90
30475;DHT22;17264;53.340;9.888;2022-08-03T05:29:05;20.20;99.90
30475;DHT22;17264;53.340;9.888;2022-08-03T05:31:31;20.40;99.90
30475;DHT22;17264;53.340;9.888;2022-08-03T05:33:56;20.40;99.90
30475;DHT22;17264;53.340;9.888;2022-08-03T05:36:22;20.50;99.90
30475;DHT22;17264;53.340;9.888;2022-08-03T05:38:48;20.60;99.90
30475;DHT22;17264;53.340;9.888;2022-08-03T05:41:13;20.70;99.90
30475;DHT22;17264;53.340;9.888;2022-08-03T05:43:39;20.70;99.90
30475;DHT22;17264;53.340;9.888;2022-08-03T05:46:05;20.90;99.90
30475;DHT22;17264;53.340;9.888;2022-08-03T05:48:31;21.00;99.90
30475;DHT22;17264;53.340;9.888;2022-08-03T05:50:56;21.00;99.90
30475;DHT22;17264;53.340;9.888;2022-08-03T05:53:22;21.20;99.90
30475;DHT22;17264;53.340;9.888;2022-08-03T05:55:47;21.30;99.90
30475;DHT22;17264;53.340;9.888;2022-08-03T05:58:13;21.40;99.90
30475;DHT22;17264;53.340;9.888;2022-08-03T06:00:38;21.50;99.90
30475;DHT22;17264;53.340;9.888;2022-08-03T06:03:04;21.60;99.90
30475;DHT22;17264;53.340;9.888;2022-08-03T06:05:30;21.80;99.90
30475;DHT22;17264;53.340;9.888;2022-08-03T06:07:55;21.90;99.90
30475;DHT22;17264;53.340;9.888;2022-08-03T06:10:21;22.00;99.90
30475;DHT22;17264;53.340;9.888;2022-08-03T06:12:47;22.10;99.90
30475;DHT22;17264;53.340;9.888;2022-08-03T06:15:14;22.30;99.90
30475;DHT22;17264;53.340;9.888;2022-08-03T06:17:43;22.40;99.90
30475;DHT22;17264;53.340;9.888;2022-08-03T06:20:09;22.60;99.90
30475;DHT22;17264;53.340;9.888;2022-08-03T06:22:34;22.70;99.90
30475;DHT22;17264;53.340;9.888;2022-08-03T06:25:01;22.80;99.90
30475;DHT22;17264;53.340;9.888;2022-08-03T06:27:26;22.80;99.90
30475;DHT22;17264;53.340;9.888;2022-08-03T06:29:52;23.00;99.90
30475;DHT22;17264;53.340;9.888;2022-08-03T06:32:17;23.20;99.90
30475;DHT22;17264;53.340;9.888;2022-08-03T06:34:47;23.30;99.90
30475;DHT22;17264;53.340;9.888;2022-08-03T06:37:13;23.30;99.90
30475;DHT22;17264;53.340;9.888;2022-08-03T06:39:38;23.50;99.90
30475;DHT22;17264;53.340;9.888;2022-08-03T06:42:04;23.70;99.90
30475;DHT22;17264;53.340;9.888;2022-08-03T06:44:29;23.90;99.90
30475;DHT22;17264;53.340;9.888;2022-08-03T06:46:55;24.10;99.90
30475;DHT22;17264;53.340;9.888;2022-08-03T06:49:21;24.20;99.90
30475;DHT22;17264;53.340;9.888;2022-08-03T06:51:46;24.30;99.90
30475;DHT22;17264;53.340;9.888;2022-08-03T06:54:12;24.40;99.90
30475;DHT22;17264;53.340;9.888;2022-08-03T06:56:37;24.50;99.90
30475;DHT22;17264;53.340;9.888;2022-08-03T06:59:03;24.70;99.90
30475;DHT22;17264;53.340;9.888;2022-08-03T07:01:29;24.80;99.90
30475;DHT22;17264;53.340;9.888;2022-08-03T07:03:54;25.00;99.90
30475;DHT22;17264;53.340;9.888;2022-08-03T07:06:20;25.20;99.90
30475;DHT22;17264;53.340;9.888;2022-08-03T07:08:46;25.20;99.90
30475;DHT22;17264;53.340;9.888;2022-08-03T07:11:11;25.30;99.90
30475;DHT22;17264;53.340;9.888;2022-08-03T07:13:37;25.40;99.90
30475;DHT22;17264;53.340;9.888;2022-08-03T07:16:05;25.50;99.90
30475;DHT22;17264;53.340;9.888;2022-08-03T07:18:31;25.60;99.90
30475;DHT22;17264;53.340;9.888;2022-08-03T07:20:56;25.70;99.90
30475;DHT22;17264;53.340;9.888;2022-08-03T07:23:22;25.70;99.90
30475;DHT22;17264;53.340;9.888;2022-08-03T07:25:47;25.90;99.90
30475;DHT22;17264;53.340;9.888;2022-08-03T07:28:13;26.00;99.90
30475;DHT22;17264;53.340;9.888;2022-08-03T07:30:39;26.00;99.90
30475;DHT22;17264;53.340;9.888;2022-08-03T07:33:04;26.00;99.90
30475;DHT22;17264;53.340;9.888;2022-08-03T07:35:30;26.20;99.90
30475;DHT22;17264;53.340;9.888;2022-08-03T07:37:55;26.50;99.90
30475;DHT22;17264;53.340;9.888;2022-08-03T07:40:21;26.50;99.90
30475;DHT22;17264;53.340;9.888;2022-08-03T07:42:46;26.70;99.90
30475;DHT22;17264;53.340;9.888;2022-08-03T07:45:12;26.90;99.90
30475;DHT22;17264;53.340;9.888;2022-08-03T07:47:38;27.00;99.90
30475;DHT22;17264;53.340;9.888;2022-08-03T07:50:04;27.10;99.90
30475;DHT22;17264;53.340;9.888;2022-08-03T07:52:30;27.20;99.90
30475;DHT22;17264;53.340;9.888;2022-08-03T07:55:14;27.20;99.90
30475;DHT22;17264;53.340;9.888;2022-08-03T07:57:40;27.30;99.90
30475;DHT22;17264;53.340;9.888;2022-08-03T08:00:07;27.30;99.90
30475;DHT22;17264;53.340;9.888;2022-08-03T08:02:36;27.40;99.90
30475;DHT22;17264;53.340;9.888;2022-08-03T08:05:02;27.30;99.90
30475;DHT22;17264;53.340;9.888;2022-08-03T08:07:28;27.40;99.90
30475;DHT22;17264;53.340;9.888;2022-08-03T08:09:53;27.70;99.90
30475;DHT22;17264;53.340;9.888;2022-08-03T08:12:19;27.70;99.90
30475;DHT22;17264;53.340;9.888;2022-08-03T08:14:44;27.90;99.90
30475;DHT22;17264;53.340;9.888;2022-08-03T08:17:11;27.90;99.90
30475;DHT22;17264;53.340;9.888;2022-08-03T08:19:36;28.00;99.90
30475;DHT22;17264;53.340;9.888;2022-08-03T08:22:02;28.30;99.90
30475;DHT22;17264;53.340;9.888;2022-08-03T08:24:27;28.30;99.90
30475;DHT22;17264;53.340;9.888;2022-08-03T08:26:55;28.30;99.90
30475;DHT22;17264;53.340;9.888;2022-08-03T08:29:20;28.50;99.90
30475;DHT22;17264;53.340;9.888;2022-08-03T08:31:47;28.80;99.90
30475;DHT22;17264;53.340;9.888;2022-08-03T08:34:14;29.20;99.90
30475;DHT22;17264;53.340;9.888;2022-08-03T08:36:40;29.50;99.90
30475;DHT22;17264;53.340;9.888;2022-08-03T08:39:05;29.70;99.90
30475;DHT22;17264;53.340;9.888;2022-08-03T08:41:31;29.70;99.90
30475;DHT22;17264;53.340;9.888;2022-08-03T08:44:00;29.60;99.90
30475;DHT22;17264;53.340;9.888;2022-08-03T08:46:26;29.90;99.90
30475;DHT22;17264;53.340;9.888;2022-08-03T08:48:53;30.10;99.90
30475;DHT22;17264;53.340;9.888;2022-08-03T08:51:20;30.10;99.90
30475;DHT22;17264;53.340;9.888;2022-08-03T08:53:50;30.20;99.90
30475;DHT22;17264;53.340;9.888;2022-08-03T08:56:16;30.40;99.90
30475;DHT22;17264;53.340;9.888;2022-08-03T08:58:52;30.40;99.90
30475;DHT22;17264;53.340;9.888;2022-08-03T09:01:18;30.80;99.90
30475;DHT22;17264;53.340;9.888;2022-08-03T09:03:44;30.90;99.90
30475;DHT22;17264;53.340;9.888;2022-08-03T09:06:10;30.80;99.90
30475;DHT22;17264;53.340;9.888;2022-08-03T09:08:36;31.30;99.90
30475;DHT22;17264;53.340;9.888;2022-08-03T09:11:01;31.50;99.90
30475;DHT22;17264;53.340;9.888;2022-08-03T09:13:27;31.70;99.90
30475;DHT22;17264;53.340;9.888;2022-08-03T09:16:09;31.70;99.90
30475;DHT22;17264;53.340;9.888;2022-08-03T09:18:36;31.70;99.90
30475;DHT22;17264;53.340;9.888;2022-08-03T09:23:58;32.40;99.90
30475;DHT22;17264;53.340;9.888;2022-08-03T09:26:27;32.60;99.90
30475;DHT22;17264;53.340;9.888;2022-08-03T09:29:00;32.90;99.90
30475;DHT22;17264;53.340;9.888;2022-08-03T09:33:55;33.30;99.90
30475;DHT22;17264;53.340;9.888;2022-08-03T09:36:33;32.90;99.90
30475;DHT22;17264;53.340;9.888;2022-08-03T09:39:03;33.00;99.90
30475;DHT22;17264;53.340;9.888;2022-08-03T09:41:30;32.80;99.90
30475;DHT22;17264;53.340;9.888;2022-08-03T09:43:56;32.90;99.90
30475;DHT22;17264;53.340;9.888;2022-08-03T09:46:22;33.10;99.90
30475;DHT22;17264;53.340;9.888;2022-08-03T09:48:47;33.00;99.90
30475;DHT22;17264;53.340;9.888;2022-08-03T09:51:13;33.50;99.90
30475;DHT22;17264;53.340;9.888;2022-08-03T09:53:43;34.00;99.90
30475;DHT22;17264;53.340;9.888;2022-08-03T09:56:09;34.00;99.90
30475;DHT22;17264;53.340;9.888;2022-08-03T09:58:38;33.80;99.90
30475;DHT22;17264;53.340;9.888;2022-08-03T10:01:09;33.60;99.90
30475;DHT22;17264;53.340;9.888;2022-08-03T10:03:35;33.20;99.90
30475;DHT22;17264;53.340;9.888;2022-08-03T10:06:14;33.10;99.90
30475;DHT22;17264;53.340;9.888;2022-08-03T10:08:40;33.10;99.90
30475;DHT22;17264;53.340;9.888;2022-08-03T10:11:06;32.70;99.90
30475;DHT22;17264;53.340;9.888;2022-08-03T10:13:31;32.30;99.90
30475;DHT22;17264;53.340;9.888;2022-08-03T10:15:57;32.80;99.90
30475;DHT22;17264;53.340;9.888;2022-08-03T10:18:23;33.50;99.90
30475;DHT22;17264;53.340;9.888;2022-08-03T10:20:50;34.30;99.90
30475;DHT22;17264;53.340;9.888;2022-08-03T10:23:17;34.60;99.90
30475;DHT22;17264;53.340;9.888;2022-08-03T10:25:45;34.90;99.90
30475;DHT22;17264;53.340;9.888;2022-08-03T10:28:12;35.10;99.90
30475;DHT22;17264;53.340;9.888;2022-08-03T10:30:39;35.90;99.90
30475;DHT22;17264;53.340;9.888;2022-08-03T10:33:11;36.40;98.90
30475;DHT22;17264;53.340;9.888;2022-08-03T10:35:37;36.60;97.70
30475;DHT22;17264;53.340;9.888;2022-08-03T10:38:07;36.40;97.60
30475;DHT22;17264;53.340;9.888;2022-08-03T10:40:33;36.30;96.70
30475;DHT22;17264;53.340;9.888;2022-08-03T10:43:06;36.00;96.30
30475;DHT22;17264;53.340;9.888;2022-08-03T10:45:32;36.30;95.90
30475;DHT22;17264;53.340;9.888;2022-08-03T10:47:59;36.30;95.40
30475;DHT22;17264;53.340;9.888;2022-08-03T10:50:25;36.00;95.60
30475;DHT22;17264;53.340;9.888;2022-08-03T10:52:58;36.40;95.10
30475;DHT22;17264;53.340;9.888;2022-08-03T10:55:38;36.20;95.30
30475;DHT22;17264;53.340;9.888;2022-08-03T11:01:03;37.20;93.40
30475;DHT22;17264;53.340;9.888;2022-08-03T11:03:29;37.30;92.80
30475;DHT22;17264;53.340;9.888;2022-08-03T11:06:12;37.00;92.70
30475;DHT22;17264;53.340;9.888;2022-08-03T11:08:38;37.30;92.00
30475;DHT22;17264;53.340;9.888;2022-08-03T11:13:58;37.50;91.10
30475;DHT22;17264;53.340;9.888;2022-08-03T11:16:24;37.80;90.60
30475;DHT22;17264;53.340;9.888;2022-08-03T11:18:57;38.40;90.00
30475;DHT22;17264;53.340;9.888;2022-08-03T11:24:07;38.40;89.10
30475;DHT22;17264;53.340;9.888;2022-08-03T11:26:33;38.20;89.10
30475;DHT22;17264;53.340;9.888;2022-08-03T11:31:43;38.60;87.10
30475;DHT22;17264;53.340;9.888;2022-08-03T11:34:10;39.70;85.40
30475;DHT22;17264;53.340;9.888;2022-08-03T11:39:20;40.70;79.90
30475;DHT22;17264;53.340;9.888;2022-08-03T11:41:45;40.20;79.80
30475;DHT22;17264;53.340;9.888;2022-08-03T11:44:38;40.40;78.70
30475;DHT22;17264;53.340;9.888;2022-08-03T11:46:56;40.90;78.50
30475;DHT22;17264;53.340;9.888;2022-08-03T11:49:23;41.10;76.80
30475;DHT22;17264;53.340;9.888;2022-08-03T11:51:52;41.10;75.00
30475;DHT22;17264;53.340;9.888;2022-08-03T11:54:18;41.50;74.80
30475;DHT22;17264;53.340;9.888;2022-08-03T11:56:45;42.10;72.50
30475;DHT22;17264;53.340;9.888;2022-08-03T11:59:11;42.30;71.30
30475;DHT22;17264;53.340;9.888;2022-08-03T12:01:36;42.40;71.00
30475;DHT22;17264;53.340;9.888;2022-08-03T12:04:03;42.20;70.60
30475;DHT22;17264;53.340;9.888;2022-08-03T12:06:29;43.50;68.50
30475;DHT22;17264;53.340;9.888;2022-08-03T12:08:55;43.60;66.20
30475;DHT22;17264;53.340;9.888;2022-08-03T12:11:20;43.80;65.00
30475;DHT22;17264;53.340;9.888;2022-08-03T12:13:48;43.50;64.20
30475;DHT22;17264;53.340;9.888;2022-08-03T12:16:22;43.10;64.90
30475;DHT22;17264;53.340;9.888;2022-08-03T12:19:21;43.10;64.20
30475;DHT22;17264;53.340;9.888;2022-08-03T12:21:46;42.80;65.10
30475;DHT22;17264;53.340;9.888;2022-08-03T12:24:12;42.40;65.10
30475;DHT22;17264;53.340;9.888;2022-08-03T12:26:45;43.00;64.50
30475;DHT22;17264;53.340;9.888;2022-08-03T12:29:20;43.50;61.80
30475;DHT22;17264;53.340;9.888;2022-08-03T12:31:46;43.80;61.40
30475;DHT22;17264;53.340;9.888;2022-08-03T12:34:12;44.10;60.60
30475;DHT22;17264;53.340;9.888;2022-08-03T12:36:48;44.10;59.60
30475;DHT22;17264;53.340;9.888;2022-08-03T12:39:14;43.30;60.10
30475;DHT22;17264;53.340;9.888;2022-08-03T12:41:39;43.40;60.00
30475;DHT22;17264;53.340;9.888;2022-08-03T12:44:05;43.20;60.30
30475;DHT22;17264;53.340;9.888;2022-08-03T12:46:33;42.90;60.10
30475;DHT22;17264;53.340;9.888;2022-08-03T12:49:00;43.00;59.70
30475;DHT22;17264;53.340;9.888;2022-08-03T12:51:30;41.80;61.30
30475;DHT22;17264;53.340;9.888;2022-08-03T12:53:56;42.50;61.40
30475;DHT22;17264;53.340;9.888;2022-08-03T12:56:22;43.60;59.70
30475;DHT22;17264;53.340;9.888;2022-08-03T12:58:47;44.60;58.30
30475;DHT22;17264;53.340;9.888;2022-08-03T13:01:14;45.50;57.10
30475;DHT22;17264;53.340;9.888;2022-08-03T13:03:46;45.60;56.40
30475;DHT22;17264;53.340;9.888;2022-08-03T13:06:22;46.10;55.60
30475;DHT22;17264;53.340;9.888;2022-08-03T13:08:48;46.30;54.80
30475;DHT22;17264;53.340;9.888;2022-08-03T13:11:17;46.40;54.50
30475;DHT22;17264;53.340;9.888;2022-08-03T13:13:43;47.00;53.80
30475;DHT22;17264;53.340;9.888;2022-08-03T13:16:08;46.90;53.40
30475;DHT22;17264;53.340;9.888;2022-08-03T13:18:34;46.30;53.30
30475;DHT22;17264;53.340;9.888;2022-08-03T13:20:59;45.50;54.00
30475;DHT22;17264;53.340;9.888;2022-08-03T13:23:25;45.60;53.80
30475;DHT22;17264;53.340;9.888;2022-08-03T13:25:50;44.40;53.30
30475;DHT22;17264;53.340;9.888;2022-08-03T13:28:16;43.60;55.00
30475;DHT22;17264;53.340;9.888;2022-08-03T13:30:42;42.70;55.80
30475;DHT22;17264;53.340;9.888;2022-08-03T13:33:07;43.20;55.60
30475;DHT22;17264;53.340;9.888;2022-08-03T13:35:33;44.50;54.10
30475;DHT22;17264;53.340;9.888;2022-08-03T13:37:58;43.70;55.00
30475;DHT22;17264;53.340;9.888;2022-08-03T13:40:24;44.70;54.80
30475;DHT22;17264;53.340;9.888;2022-08-03T13:42:49;44.90;54.40
30475;DHT22;17264;53.340;9.888;2022-08-03T13:45:15;45.40;54.20
30475;DHT22;17264;53.340;9.888;2022-08-03T13:47:40;45.80;53.10
30475;DHT22;17264;53.340;9.888;2022-08-03T13:50:06;46.10;52.50
30475;DHT22;17264;53.340;9.888;2022-08-03T13:52:32;45.70;51.60
30475;DHT22;17264;53.340;9.888;2022-08-03T13:54:58;46.50;51.10
30475;DHT22;17264;53.340;9.888;2022-08-03T13:57:24;46.30;51.10
30475;DHT22;17264;53.340;9.888;2022-08-03T13:59:50;47.20;49.80
30475;DHT22;17264;53.340;9.888;2022-08-03T14:02:15;46.30;50.80
30475;DHT22;17264;53.340;9.888;2022-08-03T14:04:41;46.90;49.70
30475;DHT22;17264;53.340;9.888;2022-08-03T14:07:06;47.20;48.80
30475;DHT22;17264;53.340;9.888;2022-08-03T14:09:32;46.90;49.10
30475;DHT22;17264;53.340;9.888;2022-08-03T14:11:58;47.50;50.40
30475;DHT22;17264;53.340;9.888;2022-08-03T14:14:24;47.70;48.90
30475;DHT22;17264;53.340;9.888;2022-08-03T14:16:49;48.00;47.60
30475;DHT22;17264;53.340;9.888;2022-08-03T14:19:15;47.00;48.00
30475;DHT22;17264;53.340;9.888;2022-08-03T14:21:40;46.90;49.10
30475;DHT22;17264;53.340;9.888;2022-08-03T14:24:06;47.00;49.00
30475;DHT22;17264;53.340;9.888;2022-08-03T14:26:31;47.30;48.20
30475;DHT22;17264;53.340;9.888;2022-08-03T14:28:57;46.10;48.90
30475;DHT22;17264;53.340;9.888;2022-08-03T14:31:23;45.70;49.60
30475;DHT22;17264;53.340;9.888;2022-08-03T14:33:49;47.00;48.40
30475;DHT22;17264;53.340;9.888;2022-08-03T14:36:15;47.50;48.10
30475;DHT22;17264;53.340;9.888;2022-08-03T14:38:40;46.90;48.70
30475;DHT22;17264;53.340;9.888;2022-08-03T14:41:06;47.40;48.60
30475;DHT22;17264;53.340;9.888;2022-08-03T14:43:31;48.20;48.10
30475;DHT22;17264;53.340;9.888;2022-08-03T14:45:57;48.50;47.30
30475;DHT22;17264;53.340;9.888;2022-08-03T14:48:23;47.80;47.50
30475;DHT22;17264;53.340;9.888;2022-08-03T14:50:49;48.50;46.80
30475;DHT22;17264;53.340;9.888;2022-08-03T14:53:15;48.70;46.90
30475;DHT22;17264;53.340;9.888;2022-08-03T14:55:43;47.40;48.10
30475;DHT22;17264;53.340;9.888;2022-08-03T14:58:10;47.30;48.00
30475;DHT22;17264;53.340;9.888;2022-08-03T15:00:35;48.00;46.90
30475;DHT22;17264;53.340;9.888;2022-08-03T15:03:01;48.70;46.00
30475;DHT22;17264;53.340;9.888;2022-08-03T15:05:27;47.50;45.50
30475;DHT22;17264;53.340;9.888;2022-08-03T15:07:52;48.30;45.30
30475;DHT22;17264;53.340;9.888;2022-08-03T15:10:18;47.10;46.20
30475;DHT22;17264;53.340;9.888;2022-08-03T15:12:43;47.30;46.90
30475;DHT22;17264;53.340;9.888;2022-08-03T15:15:09;47.20;46.80
30475;DHT22;17264;53.340;9.888;2022-08-03T15:17:35;48.20;45.80
30475;DHT22;17264;53.340;9.888;2022-08-03T15:20:00;48.60;45.50
30475;DHT22;17264;53.340;9.888;2022-08-03T15:22:26;48.70;45.50
30475;DHT22;17264;53.340;9.888;2022-08-03T15:24:51;47.90;45.50
30475;DHT22;17264;53.340;9.888;2022-08-03T15:27:17;47.10;46.10
30475;DHT22;17264;53.340;9.888;2022-08-03T15:29:42;47.00;46.10
30475;DHT22;17264;53.340;9.888;2022-08-03T15:32:08;46.80;46.60
30475;DHT22;17264;53.340;9.888;2022-08-03T15:34:34;47.50;46.00
30475;DHT22;17264;53.340;9.888;2022-08-03T15:36:59;47.50;46.00
30475;DHT22;17264;53.340;9.888;2022-08-03T15:39:25;47.30;46.20
30475;DHT22;17264;53.340;9.888;2022-08-03T15:41:50;47.50;46.10
30475;DHT22;17264;53.340;9.888;2022-08-03T15:44:19;46.90;46.70
30475;DHT22;17264;53.340;9.888;2022-08-03T15:46:44;46.30;46.90
30475;DHT22;17264;53.340;9.888;2022-08-03T15:49:10;46.60;46.60
30475;DHT22;17264;53.340;9.888;2022-08-03T15:51:36;45.60;47.80
30475;DHT22;17264;53.340;9.888;2022-08-03T15:54:02;44.00;49.00
30475;DHT22;17264;53.340;9.888;2022-08-03T15:56:28;42.20;50.90
30475;DHT22;17264;53.340;9.888;2022-08-03T15:58:54;40.60;52.60